Time;durP1;ratioP1;P1;durP2;ratioP2;P2;SDS_P1;SDS_P2;PMS_P1;PMS_P2;Temp;Humidity;BMP_temperature;BMP_pressure;BME280_temperature;BME280_humidity;BME280_pressure;Samples;Min_cycle;Max_cycle;Signal;HPM_P1;HPM_P2
2023/06/22 00:02:07;;;;;;;1.85;1.05;;;;;;;23.22;100.00;100352.41;5072186;28;20198;-74
2023/06/22 00:04:33;;;;;;;0.70;0.70;;;;;;;23.29;100.00;100339.00;5072047;28;20190;-74
2023/06/22 00:07:00;;;;;;;1.83;1.08;;;;;;;23.22;100.00;100320.66;5072260;28;20277;-72
2023/06/22 00:09:27;;;;;;;0.90;0.90;;;;;;;23.37;100.00;100345.75;5071449;28;20203;-72
2023/06/22 00:11:55;;;;;;;1.30;0.93;;;;;;;23.34;100.00;100350.28;5073015;28;20199;-73
2023/06/22 00:14:22;;;;;;;1.25;0.90;;;;;;;23.26;100.00;100336.47;5072213;28;20198;-73
2023/06/22 00:16:49;;;;;;;0.70;0.70;;;;;;;23.35;100.00;100333.50;5072701;28;20612;-73
2023/06/22 00:19:16;;;;;;;1.17;0.88;;;;;;;23.29;100.00;100334.59;5036758;28;20205;-73
2023/06/22 00:21:46;;;;;;;0.60;0.60;;;;;;;23.46;100.00;100348.16;5071502;28;20207;-72
2023/06/22 00:24:13;;;;;;;1.00;0.90;;;;;;;23.49;100.00;100363.06;5071679;28;20272;-72
2023/06/22 00:26:40;;;;;;;0.70;0.70;;;;;;;23.59;100.00;100359.19;5037762;28;20222;-73
2023/06/22 00:29:08;;;;;;;0.90;0.90;;;;;;;23.75;100.00;100371.00;5067875;28;20264;-73
2023/06/22 00:31:35;;;;;;;1.20;0.93;;;;;;;23.61;100.00;100373.25;5071974;28;20256;-73
2023/06/22 00:34:02;;;;;;;1.48;1.05;;;;;;;23.56;100.00;100370.75;5071925;28;20207;-73
2023/06/22 00:36:28;;;;;;;1.30;0.95;;;;;;;23.57;100.00;100361.03;5072123;28;20207;-72
2023/06/22 00:38:55;;;;;;;0.70;0.70;;;;;;;23.53;100.00;100354.09;5071393;28;20224;-73
2023/06/22 00:41:22;;;;;;;1.70;1.10;;;;;;;23.51;100.00;100361.22;5071834;28;20666;-73
2023/06/22 00:43:49;;;;;;;0.70;0.70;;;;;;;23.51;100.00;100353.28;5071345;28;20206;-73
2023/06/22 00:46:17;;;;;;;1.20;0.90;;;;;;;23.64;100.00;100357.25;5071044;28;20237;-73
2023/06/22 00:48:43;;;;;;;0.80;0.80;;;;;;;23.54;100.00;100347.91;5071585;28;20218;-73
2023/06/22 00:51:11;;;;;;;1.52;0.98;;;;;;;23.63;100.00;100342.28;5035805;28;20203;-73
2023/06/22 00:53:38;;;;;;;0.70;0.70;;;;;;;23.56;100.00;100332.81;5071544;28;20252;-73
2023/06/22 00:56:06;;;;;;;0.90;0.90;;;;;;;23.61;100.00;100330.91;5063721;28;20198;-73
2023/06/22 00:58:33;;;;;;;1.08;0.80;;;;;;;23.44;100.00;100301.47;5070716;28;20206;-73
2023/06/22 01:01:01;;;;;;;0.85;0.80;;;;;;;23.55;100.00;100325.78;5071222;28;20198;-74
2023/06/22 01:03:29;;;;;;;1.13;0.82;;;;;;;23.69;100.00;100334.13;5069594;28;20252;-73
2023/06/22 01:06:03;;;;;;;1.27;1.05;;;;;;;23.76;100.00;100334.81;5071162;28;20709;-73
2023/06/22 01:08:41;;;;;;;0.95;0.95;;;;;;;23.73;100.00;100335.75;5071312;28;20202;-73
2023/06/22 01:11:13;;;;;;;0.90;0.90;;;;;;;23.74;100.00;100337.47;5071241;28;20215;-74
2023/06/22 01:13:49;;;;;;;0.70;0.70;;;;;;;23.83;100.00;100337.16;5071107;28;20199;-73
2023/06/22 01:16:21;;;;;;;2.80;1.25;;;;;;;23.79;100.00;100335.56;5071594;28;20195;-73
2023/06/22 01:18:53;;;;;;;0.70;0.70;;;;;;;23.91;100.00;100350.13;5070685;28;20591;-72
2023/06/22 01:21:21;;;;;;;1.23;0.90;;;;;;;23.96;100.00;100350.84;5052447;28;20195;-73
2023/06/22 01:24:10;;;;;;;0.73;0.73;;;;;;;23.99;100.00;100354.25;5071033;28;20789;-73
2023/06/22 01:26:42;;;;;;;0.70;0.70;;;;;;;23.94;100.00;100356.19;5069176;28;20223;-72
2023/06/22 01:29:13;;;;;;;1.65;0.80;;;;;;;23.91;100.00;100340.41;5070733;28;20195;-72
2023/06/22 01:31:42;;;;;;;0.80;0.80;;;;;;;23.83;100.00;100353.03;5070732;28;20356;-72
2023/06/22 01:34:10;;;;;;;1.40;0.82;;;;;;;23.79;100.00;100359.41;5071021;28;20210;-72
2023/06/22 01:36:38;;;;;;;0.60;0.60;;;;;;;23.60;100.00;100334.44;5071495;28;20203;-74
2023/06/22 01:39:07;;;;;;;0.80;0.80;;;;;;;23.73;100.00;100351.63;5071118;28;20704;-73
2023/06/22 01:41:37;;;;;;;1.00;0.82;;;;;;;23.74;100.00;100352.50;5071091;28;20209;-73
2023/06/22 01:44:07;;;;;;;0.90;0.82;;;;;;;22.37;100.00;100165.69;5070300;28;20725;-73
2023/06/22 01:46:36;;;;;;;1.00;0.85;;;;;;;23.50;100.00;100354.22;5070397;28;20262;-72
2023/06/22 01:49:03;;;;;;;1.13;1.02;;;;;;;23.36;100.00;100361.72;5070846;28;20209;-72
2023/06/22 01:51:30;;;;;;;1.05;0.95;;;;;;;23.30;100.00;100357.47;5071160;28;20280;-72
2023/06/22 01:53:57;;;;;;;0.70;0.70;;;;;;;23.29;100.00;100350.47;5069781;28;20199;-73
2023/06/22 01:56:24;;;;;;;1.75;1.00;;;;;;;23.31;100.00;100355.69;5044304;28;20215;-73
2023/06/22 01:58:58;;;;;;;0.70;0.70;;;;;;;23.48;100.00;100348.97;5064817;28;20213;-73
2023/06/22 02:01:32;;;;;;;1.35;0.90;;;;;;;23.28;100.00;100335.50;5038374;28;20571;-73
2023/06/22 02:04:07;;;;;;;0.82;0.82;;;;;;;23.31;100.00;100360.97;5070988;28;20692;-73
2023/06/22 02:06:38;;;;;;;1.02;0.95;;;;;;;23.20;100.00;100356.03;5071123;28;20237;-73
2023/06/22 02:09:10;;;;;;;0.80;0.80;;;;;;;23.31;100.00;100366.28;5070597;28;20214;-73
2023/06/22 02:11:38;;;;;;;2.25;1.17;;;;;;;23.27;100.00;100368.16;5072810;28;20206;-73
2023/06/22 02:14:07;;;;;;;0.70;0.70;;;;;;;22.77;100.00;100293.06;5074745;28;20214;-73
2023/06/22 02:16:34;;;;;;;0.90;0.90;;;;;;;23.12;100.00;100369.50;5039990;28;20286;-73
2023/06/22 02:19:03;;;;;;;0.80;0.80;;;;;;;23.03;100.00;100353.94;5074546;28;20199;-73
2023/06/22 02:21:31;;;;;;;0.93;0.90;;;;;;;22.95;100.00;100368.31;5073496;28;20651;-73
2023/06/22 02:23:58;;;;;;;0.70;0.70;;;;;;;22.84;100.00;100373.94;5074506;28;20281;-73
2023/06/22 02:26:26;;;;;;;1.90;1.02;;;;;;;22.94;100.00;100379.78;5074690;28;20254;-73
2023/06/22 02:28:53;;;;;;;0.93;0.90;;;;;;;22.79;100.00;100378.50;5074152;28;20674;-73
2023/06/22 02:31:20;;;;;;;0.95;0.80;;;;;;;22.61;100.00;100373.72;5074634;28;20242;-73
2023/06/22 02:33:48;;;;;;;0.95;0.90;;;;;;;22.57;100.00;100375.59;5074135;28;20211;-73
2023/06/22 02:36:23;;;;;;;1.42;1.42;;;;;;;22.64;100.00;100386.84;5051817;28;20198;-73
2023/06/22 02:38:50;;;;;;;0.73;0.73;;;;;;;22.61;100.00;100394.88;5073562;28;20339;-73
2023/06/22 02:41:18;;;;;;;0.80;0.80;;;;;;;22.61;100.00;100397.53;5074445;28;20207;-73
2023/06/22 02:43:46;;;;;;;0.70;0.70;;;;;;;22.75;100.00;100408.59;5074425;28;20203;-73
2023/06/22 02:46:13;;;;;;;0.75;0.75;;;;;;;22.51;100.00;100364.34;5073640;28;20246;-73
2023/06/22 02:48:40;;;;;;;0.90;0.90;;;;;;;22.64;100.00;100394.78;5073087;28;20627;-73
2023/06/22 02:51:07;;;;;;;0.90;0.90;;;;;;;22.70;100.00;100423.72;5074149;28;20680;-73
2023/06/22 02:53:35;;;;;;;1.10;0.90;;;;;;;22.79;100.00;100423.47;5073569;28;20226;-74
2023/06/22 02:56:05;;;;;;;1.73;1.63;;;;;;;22.80;100.00;100446.31;5073978;28;20210;-72
2023/06/22 02:58:33;;;;;;;0.80;0.80;;;;;;;22.78;100.00;100440.22;5073374;28;20202;-73
2023/06/22 03:01:04;;;;;;;0.98;0.98;;;;;;;22.70;100.00;100421.06;5071592;28;20674;-73
2023/06/22 03:03:31;;;;;;;1.25;1.00;;;;;;;22.81;100.00;100432.19;5068816;28;20598;-73
2023/06/22 03:05:58;;;;;;;0.70;0.70;;;;;;;22.77;100.00;100414.69;5073828;28;20229;-73
2023/06/22 03:08:24;;;;;;;0.85;0.85;;;;;;;22.90;100.00;100426.63;5073567;28;20209;-73
2023/06/22 03:10:53;;;;;;;0.80;0.80;;;;;;;23.04;100.00;100429.75;5070242;28;20203;-73
2023/06/22 03:13:19;;;;;;;1.02;0.90;;;;;;;23.08;100.00;100430.53;5073177;28;20203;-73
2023/06/22 03:15:46;;;;;;;0.77;0.70;;;;;;;23.32;100.00;100421.81;5073057;28;20724;-73
2023/06/22 03:18:13;;;;;;;0.80;0.75;;;;;;;23.68;100.00;100427.75;5072781;28;20230;-74
2023/06/22 03:20:40;;;;;;;1.42;0.95;;;;;;;23.89;100.00;100432.31;5073529;28;20668;-74
2023/06/22 03:23:07;;;;;;;0.80;0.80;;;;;;;24.18;100.00;100432.22;5072084;28;20261;-74
2023/06/22 03:25:34;;;;;;;1.17;0.98;;;;;;;24.43;100.00;100424.25;5073528;28;20260;-74
2023/06/22 03:28:02;;;;;;;0.75;0.75;;;;;;;24.84;100.00;100436.00;5073342;28;20616;-76
2023/06/22 03:30:29;;;;;;;0.80;0.80;;;;;;;25.20;100.00;100440.81;5073132;28;20226;-76
2023/06/22 03:32:56;;;;;;;0.70;0.70;;;;;;;25.61;100.00;100450.69;5072866;28;20206;-76
2023/06/22 03:35:23;;;;;;;1.42;1.00;;;;;;;26.14;100.00;100457.28;5072788;28;20548;-76
2023/06/22 03:37:49;;;;;;;0.70;0.70;;;;;;;26.64;100.00;100456.91;5073235;28;20202;-76
2023/06/22 03:40:16;;;;;;;0.80;0.80;;;;;;;26.93;100.00;100459.09;5073363;28;20205;-76
2023/06/22 03:42:43;;;;;;;0.80;0.80;;;;;;;27.23;100.00;100467.47;5072541;28;20199;-75
2023/06/22 03:45:12;;;;;;;1.52;0.90;;;;;;;27.98;100.00;100462.88;5072006;28;20670;-75
2023/06/22 03:47:39;;;;;;;2.00;1.13;;;;;;;28.17;100.00;100468.19;5071966;28;20716;-75
2023/06/22 03:50:06;;;;;;;0.70;0.70;;;;;;;28.36;97.85;100446.75;5036884;28;20263;-75
2023/06/22 03:52:33;;;;;;;1.05;0.93;;;;;;;28.84;95.72;100470.88;5072330;28;20661;-74
2023/06/22 03:55:00;;;;;;;0.70;0.70;;;;;;;29.33;91.64;100484.22;5071785;28;20596;-75
2023/06/22 03:57:27;;;;;;;0.85;0.85;;;;;;;29.41;89.58;100498.00;5038077;28;20194;-75
2023/06/22 03:59:57;;;;;;;0.85;0.85;;;;;;;29.36;89.11;100489.41;5072712;28;20198;-76
2023/06/22 04:02:25;;;;;;;0.77;0.77;;;;;;;29.47;87.54;100495.84;5053627;28;20271;-75
2023/06/22 04:04:52;;;;;;;1.65;1.02;;;;;;;29.79;85.97;100504.72;5070884;28;20202;-77
2023/06/22 04:07:19;;;;;;;1.85;1.13;;;;;;;29.87;83.55;100502.50;5072462;28;20283;-75
2023/06/22 04:09:46;;;;;;;1.08;0.88;;;;;;;29.79;84.13;100501.16;5072071;28;20206;-75
2023/06/22 04:12:12;;;;;;;0.70;0.70;;;;;;;29.68;83.03;100493.78;5070139;28;20195;-75
2023/06/22 04:14:39;;;;;;;1.63;1.00;;;;;;;29.68;84.29;100495.59;5067244;28;20263;-75
2023/06/22 04:17:06;;;;;;;0.60;0.60;;;;;;;30.07;83.96;100498.69;5071547;28;20194;-76
2023/06/22 04:19:34;;;;;;;0.75;0.70;;;;;;;30.38;80.24;100487.88;5061932;28;20198;-72
2023/06/22 04:22:01;;;;;;;0.93;0.90;;;;;;;30.78;77.79;100494.38;5071672;28;20199;-75
2023/06/22 04:24:28;;;;;;;0.70;0.70;;;;;;;31.45;74.33;100484.75;5071742;28;20665;-76
2023/06/22 04:26:55;;;;;;;0.80;0.80;;;;;;;31.94;69.58;100504.72;5070973;28;20217;-75
2023/06/22 04:29:30;;;;;;;0.88;0.88;;;;;;;31.84;67.63;100510.81;5071442;28;20222;-79
2023/06/22 04:31:58;;;;;;;0.82;0.80;;;;;;;32.24;67.20;100504.53;5063247;28;20229;-76
2023/06/22 04:34:27;;;;;;;0.70;0.70;;;;;;;32.00;66.46;100510.66;5069769;28;20281;-75
2023/06/22 04:36:56;;;;;;;0.80;0.80;;;;;;;32.74;66.61;100513.63;5035264;28;20289;-76
2023/06/22 04:39:23;;;;;;;0.70;0.70;;;;;;;33.35;62.65;100511.03;5069829;28;20199;-75
2023/06/22 04:41:51;;;;;;;0.90;0.90;;;;;;;33.00;61.50;100501.88;5068534;28;20271;-76
2023/06/22 04:44:23;;;;;;;1.00;1.00;;;;;;;33.10;61.12;100510.19;5071057;28;20580;-76
2023/06/22 04:46:53;;;;;;;0.80;0.80;;;;;;;32.72;61.46;100502.97;5071738;28;20218;-76
2023/06/22 04:49:21;;;;;;;1.25;1.17;;;;;;;32.27;62.96;100514.19;5071381;28;20202;-76
2023/06/22 04:51:51;;;;;;;1.30;1.13;;;;;;;32.44;64.80;100505.84;5071611;28;20194;-76
2023/06/22 04:54:19;;;;;;;0.98;0.98;;;;;;;33.19;64.14;100502.34;5067855;28;20272;-75
2023/06/22 04:56:46;;;;;;;1.75;0.98;;;;;;;33.34;62.08;100495.00;5069370;28;20210;-73
2023/06/22 04:59:13;;;;;;;0.60;0.60;;;;;;;33.62;59.48;100504.56;5069442;28;20207;-73
2023/06/22 05:01:40;;;;;;;1.33;1.08;;;;;;;34.17;59.14;100506.75;5066873;28;20202;-74
2023/06/22 05:04:07;;;;;;;0.68;0.68;;;;;;;34.25;57.77;100507.00;5071232;28;20225;-75
2023/06/22 05:06:34;;;;;;;0.80;0.80;;;;;;;34.27;56.00;100505.94;5068028;28;20234;-78
2023/06/22 05:09:01;;;;;;;1.17;0.85;;;;;;;34.85;54.34;100494.19;5068769;28;20206;-75
2023/06/22 05:11:29;;;;;;;0.60;0.60;;;;;;;35.20;52.82;100528.31;5066801;28;20565;-74
2023/06/22 05:13:57;;;;;;;1.85;1.05;;;;;;;34.23;55.20;100520.59;5051469;28;20214;-72
2023/06/22 05:16:25;;;;;;;0.63;0.63;;;;;;;33.26;58.78;100532.31;5051587;28;20210;-72
2023/06/22 05:18:55;;;;;;;1.02;0.82;;;;;;;33.15;60.17;100532.22;5063942;28;20263;-73
2023/06/22 05:21:27;;;;;;;0.50;0.50;;;;;;;32.84;62.83;100539.75;5071204;28;20206;-72
2023/06/22 05:23:55;;;;;;;2.15;1.08;;;;;;;32.66;64.70;100511.47;5070637;28;20206;-72
2023/06/22 05:26:23;;;;;;;1.17;0.93;;;;;;;33.08;62.10;100534.47;5052882;28;20269;-72
2023/06/22 05:28:51;;;;;;;0.70;0.70;;;;;;;33.00;62.05;100514.50;5058803;28;20210;-73
2023/06/22 05:31:19;;;;;;;1.35;1.25;;;;;;;33.74;58.95;100542.25;5055343;28;20239;-73
2023/06/22 05:33:47;;;;;;;0.90;0.80;;;;;;;33.81;57.75;100540.81;5051451;28;20226;-73
2023/06/22 05:36:14;;;;;;;1.38;0.93;;;;;;;34.42;55.13;100547.00;5063221;28;20210;-73
2023/06/22 05:38:41;;;;;;;0.60;0.60;;;;;;;34.91;53.08;100548.59;5056575;28;20210;-72
2023/06/22 05:41:09;;;;;;;1.13;0.80;;;;;;;35.11;52.50;100540.63;5068334;28;20217;-72
2023/06/22 05:43:36;;;;;;;0.70;0.70;;;;;;;34.01;54.43;100527.69;5067756;28;20607;-72
2023/06/22 05:46:05;;;;;;;1.10;0.80;;;;;;;34.56;53.98;100546.78;5067128;28;20202;-72
2023/06/22 05:48:32;;;;;;;0.63;0.63;;;;;;;34.03;55.28;100548.16;5059120;28;20745;-74
2023/06/22 05:50:58;;;;;;;1.23;0.82;;;;;;;34.60;54.17;100550.09;5029093;28;20203;-71
2023/06/22 05:53:25;;;;;;;0.60;0.60;;;;;;;34.75;54.27;100544.41;5068302;28;20194;-72
2023/06/22 05:55:52;;;;;;;1.40;0.95;;;;;;;34.46;55.57;100556.53;5061430;28;20206;-72
2023/06/22 05:58:19;;;;;;;3.13;1.20;;;;;;;34.38;55.42;100561.66;5064403;28;20723;-72
2023/06/22 06:00:46;;;;;;;1.10;0.80;;;;;;;34.38;56.34;100550.91;5069719;28;20194;-72
2023/06/22 06:03:16;;;;;;;1.13;1.02;;;;;;;33.72;57.51;100546.88;5052366;28;20199;-72
2023/06/22 06:05:44;;;;;;;0.65;0.65;;;;;;;32.72;62.44;100502.13;5065523;28;20202;-77
2023/06/22 06:08:12;;;;;;;2.28;0.90;;;;;;;32.40;66.13;100547.28;5054039;28;20236;-73
2023/06/22 06:10:38;;;;;;;0.60;0.60;;;;;;;31.89;67.84;100530.16;5058363;28;20199;-72
2023/06/22 06:13:05;;;;;;;1.13;0.77;;;;;;;32.11;68.96;100545.69;5025413;28;20205;-73
2023/06/22 06:15:32;;;;;;;1.65;0.85;;;;;;;32.69;68.28;100540.81;5067491;28;20267;-73
2023/06/22 06:17:59;;;;;;;1.50;1.10;;;;;;;33.11;66.31;100538.78;5053703;28;20210;-73
2023/06/22 06:20:28;;;;;;;0.70;0.70;;;;;;;33.25;62.84;100520.69;5038716;28;20643;-73
2023/06/22 06:22:55;;;;;;;2.53;2.22;;;;;;;33.56;61.83;100519.34;5062972;28;20203;-74
2023/06/22 06:25:23;;;;;;;0.70;0.70;;;;;;;33.77;61.70;100539.31;5073812;28;20198;-74
2023/06/22 06:27:51;;;;;;;0.77;0.77;;;;;;;34.38;59.99;100550.91;5066506;28;20620;-77
2023/06/22 06:30:19;;;;;;;0.85;0.82;;;;;;;34.17;59.02;100537.25;5062864;28;20230;-74
2023/06/22 06:32:47;;;;;;;0.80;0.80;;;;;;;33.38;60.86;100523.38;5056811;28;20207;-74
2023/06/22 06:35:15;;;;;;;1.50;0.90;;;;;;;32.89;62.74;100547.50;5061304;28;20198;-72
2023/06/22 06:37:44;;;;;;;0.98;0.65;;;;;;;32.60;64.25;100538.78;5057718;28;20241;-74
2023/06/22 06:40:13;;;;;;;0.90;0.70;;;;;;;32.06;65.96;100547.84;5050080;28;20205;-73
2023/06/22 06:42:41;;;;;;;1.30;0.80;;;;;;;32.06;66.67;100531.75;5059124;28;20217;-74
2023/06/22 06:45:09;;;;;;;1.23;0.82;;;;;;;31.99;67.43;100555.41;5063297;28;20207;-75
2023/06/22 06:47:36;;;;;;;0.90;0.80;;;;;;;31.51;71.24;100543.31;5050279;28;20222;-74
2023/06/22 06:50:03;;;;;;;1.42;0.93;;;;;;;30.91;72.07;100540.84;5072183;28;20665;-73
2023/06/22 06:52:30;;;;;;;0.82;0.82;;;;;;;30.28;74.17;100529.50;5061482;28;20209;-73
2023/06/22 06:54:58;;;;;;;1.45;0.90;;;;;;;29.65;79.10;100506.44;5069962;28;20647;-75
2023/06/22 06:57:28;;;;;;;0.82;0.80;;;;;;;29.26;82.35;100530.88;5072428;28;20209;-74
2023/06/22 06:59:56;;;;;;;1.50;0.93;;;;;;;29.13;86.84;100519.16;5067273;28;20261;-74
2023/06/22 07:02:22;;;;;;;0.60;0.60;;;;;;;29.32;86.85;100503.88;5066239;28;20231;-74
2023/06/22 07:04:49;;;;;;;0.88;0.73;;;;;;;29.55;84.24;100519.47;5065053;28;20199;-74
2023/06/22 07:07:16;;;;;;;1.55;1.00;;;;;;;29.65;84.47;100522.50;5038182;28;20231;-73
2023/06/22 07:09:43;;;;;;;2.20;1.10;;;;;;;29.80;85.21;100517.13;5067305;28;20202;-75
2023/06/22 07:12:11;;;;;;;2.20;0.98;;;;;;;29.71;83.80;100527.50;5063752;28;20207;-74
2023/06/22 07:14:38;;;;;;;0.60;0.60;;;;;;;29.92;82.02;100527.19;5068771;28;20206;-73
2023/06/22 07:17:05;;;;;;;1.27;0.90;;;;;;;29.98;80.57;100524.13;5072601;28;20202;-73
2023/06/22 07:19:33;;;;;;;3.03;1.20;;;;;;;29.65;82.02;100520.69;5061575;28;20592;-72
2023/06/22 07:22:00;;;;;;;0.68;0.68;;;;;;;29.82;80.70;100525.09;5071565;28;20203;-73
2023/06/22 07:24:27;;;;;;;0.73;0.73;;;;;;;29.24;79.01;100511.41;5072304;28;20206;-73
2023/06/22 07:26:54;;;;;;;0.70;0.70;;;;;;;29.31;78.95;100523.53;5072277;28;20205;-73
2023/06/22 07:29:22;;;;;;;1.30;0.90;;;;;;;29.51;80.83;100526.81;5067125;28;20227;-73
2023/06/22 07:31:51;;;;;;;1.15;1.13;;;;;;;29.79;82.27;100526.09;5059336;28;20667;-73
2023/06/22 07:34:18;;;;;;;0.73;0.73;;;;;;;29.38;78.85;100524.91;5065463;28;20222;-73
2023/06/22 07:36:44;;;;;;;1.27;0.85;;;;;;;29.82;78.53;100525.91;5055858;28;20199;-73
2023/06/22 07:39:12;;;;;;;1.30;0.95;;;;;;;30.13;76.67;100529.53;5060629;28;20203;-73
2023/06/22 07:41:40;;;;;;;0.70;0.70;;;;;;;30.12;74.17;100530.50;5059375;28;20214;-73
2023/06/22 07:44:07;;;;;;;0.98;0.90;;;;;;;30.11;75.99;100528.78;5056169;28;20226;-73
2023/06/22 07:46:35;;;;;;;0.80;0.80;;;;;;;29.74;76.64;100521.97;5046938;28;20756;-73
2023/06/22 07:49:03;;;;;;;1.38;0.95;;;;;;;29.95;79.19;100532.34;5057749;28;20230;-73
2023/06/22 07:51:30;;;;;;;0.70;0.70;;;;;;;29.91;75.31;100522.78;5071384;28;20689;-73
2023/06/22 07:53:56;;;;;;;0.98;0.98;;;;;;;30.20;77.16;100531.78;5072286;28;20665;-74
2023/06/22 07:56:23;;;;;;;1.20;0.90;;;;;;;30.24;74.95;100508.38;5072250;28;20574;-74
2023/06/22 07:58:50;;;;;;;0.70;0.70;;;;;;;30.40;75.05;100520.75;5072499;28;20209;-74
2023/06/22 08:01:20;;;;;;;1.75;1.00;;;;;;;30.55;72.25;100526.16;5072052;28;20195;-75
2023/06/22 08:03:48;;;;;;;0.60;0.60;;;;;;;30.37;70.28;100523.59;5060291;28;20195;-74
2023/06/22 08:06:16;;;;;;;1.13;0.93;;;;;;;30.23;71.78;100522.69;5067793;28;20202;-73
2023/06/22 08:08:43;;;;;;;0.70;0.70;;;;;;;30.24;68.93;100477.13;5035438;28;20226;-75
2023/06/22 08:11:10;;;;;;;1.55;0.98;;;;;;;30.17;69.00;100528.41;5071692;28;20226;-74
2023/06/22 08:13:37;;;;;;;0.70;0.70;;;;;;;30.27;68.18;100521.56;5072070;28;20214;-81
2023/06/22 08:16:04;;;;;;;2.40;1.00;;;;;;;30.17;68.40;100525.75;5068607;28;20198;-80
2023/06/22 08:18:30;;;;;;;1.40;1.10;;;;;;;29.87;72.02;100521.22;5071791;28;20202;-77
2023/06/22 08:20:59;;;;;;;1.27;1.20;;;;;;;30.06;71.84;100490.72;5072010;28;20260;-75
2023/06/22 08:23:25;;;;;;;2.70;1.40;;;;;;;30.40;68.62;100517.19;5072032;28;20196;-77
2023/06/22 08:25:52;;;;;;;1.00;1.00;;;;;;;30.11;68.48;100510.06;5049106;28;20241;-78
2023/06/22 08:28:19;;;;;;;1.65;0.93;;;;;;;30.35;71.71;100516.63;5052907;28;20250;-79
2023/06/22 08:30:46;;;;;;;0.70;0.70;;;;;;;30.62;68.51;100520.34;5066495;28;20249;-77
2023/06/22 08:33:13;;;;;;;1.50;1.23;;;;;;;30.70;68.46;100522.56;5055379;28;21595;-77
2023/06/22 08:35:40;;;;;;;0.70;0.70;;;;;;;30.58;67.69;100518.81;5061069;28;20194;-78
2023/06/22 08:38:08;;;;;;;1.75;1.05;;;;;;;30.71;66.80;100517.13;5063413;28;20209;-74
2023/06/22 08:40:35;;;;;;;0.63;0.63;;;;;;;30.82;64.40;100516.47;5065839;28;20205;-74
2023/06/22 08:43:02;;;;;;;1.23;0.90;;;;;;;31.02;65.71;100510.75;5021511;28;20194;-76
2023/06/22 08:45:29;;;;;;;2.05;1.15;;;;;;;31.25;64.78;100512.00;5060608;28;20245;-76
2023/06/22 08:47:55;;;;;;;0.70;0.70;;;;;;;31.11;62.66;100510.16;5061648;28;20226;-75
2023/06/22 08:50:22;;;;;;;1.35;0.80;;;;;;;31.36;59.95;100517.50;5071150;28;20194;-75
2023/06/22 08:52:49;;;;;;;0.70;0.70;;;;;;;31.43;60.13;100516.13;5029715;28;20545;-74
2023/06/22 08:55:18;;;;;;;1.45;1.08;;;;;;;31.36;59.02;100520.19;5023455;28;20658;-74
2023/06/22 08:57:44;;;;;;;0.70;0.70;;;;;;;30.95;58.49;100514.72;5057057;28;20211;-74
2023/06/22 09:00:17;;;;;;;1.10;0.77;;;;;;;31.06;60.63;100506.06;5063982;28;20199;-74
2023/06/22 09:02:44;;;;;;;3.40;1.45;;;;;;;31.24;59.59;100503.06;5064565;28;20625;-73
2023/06/22 09:05:11;;;;;;;1.20;1.10;;;;;;;31.20;58.88;100492.66;5057569;28;20202;-74
2023/06/22 09:07:38;;;;;;;1.10;0.85;;;;;;;30.94;59.35;100513.88;5068735;28;20730;-73
2023/06/22 09:10:05;;;;;;;0.77;0.77;;;;;;;30.97;60.70;100513.69;5070374;28;20666;-73
2023/06/22 09:12:34;;;;;;;3.40;1.15;;;;;;;30.49;60.35;100377.50;5057456;28;20222;-75
2023/06/22 09:15:02;;;;;;;0.77;0.77;;;;;;;31.47;58.81;100512.31;5070624;28;20195;-75
2023/06/22 09:17:29;;;;;;;2.00;1.10;;;;;;;31.57;57.86;100497.38;5070482;28;20202;-75
2023/06/22 09:19:56;;;;;;;0.50;0.50;;;;;;;31.67;55.06;100519.09;5064240;28;20213;-75
2023/06/22 09:22:23;;;;;;;0.80;0.80;;;;;;;31.46;56.89;100507.94;5035529;28;20201;-75
2023/06/22 09:24:50;;;;;;;0.70;0.70;;;;;;;31.69;57.87;100515.34;5056358;28;20210;-73
2023/06/22 09:27:16;;;;;;;1.35;0.77;;;;;;;31.43;56.13;100524.19;5064242;28;20230;-76
2023/06/22 09:29:45;;;;;;;0.70;0.70;;;;;;;31.80;55.30;100520.00;5066430;28;20226;-75
2023/06/22 09:32:11;;;;;;;0.70;0.70;;;;;;;31.66;54.43;100518.25;5051153;28;20218;-74
2023/06/22 09:34:38;;;;;;;1.30;1.13;;;;;;;31.76;54.50;100524.72;5035356;28;20214;-75
2023/06/22 09:37:06;;;;;;;1.00;0.98;;;;;;;31.89;53.76;100520.25;5069878;28;20207;-74
2023/06/22 09:39:32;;;;;;;1.17;0.98;;;;;;;31.74;54.40;100520.44;5070287;28;20742;-75
2023/06/22 09:42:00;;;;;;;0.80;0.80;;;;;;;31.45;53.53;100503.50;5034946;28;20209;-75
2023/06/22 09:44:27;;;;;;;0.80;0.80;;;;;;;31.53;53.38;100511.09;5064991;28;20203;-73
2023/06/22 09:46:55;;;;;;;1.17;1.17;;;;;;;31.62;53.33;100515.84;5064810;28;20248;-74
2023/06/22 09:49:22;;;;;;;1.10;0.93;;;;;;;31.54;54.81;100516.34;5058513;28;20247;-73
2023/06/22 09:51:49;;;;;;;1.25;1.25;;;;;;;31.70;53.40;100513.53;5067374;28;20684;-75
2023/06/22 09:54:16;;;;;;;0.90;0.80;;;;;;;31.81;53.46;100519.06;5027278;28;20227;-74
2023/06/22 09:56:43;;;;;;;0.77;0.77;;;;;;;31.90;54.48;100515.75;5063088;28;20213;-73
2023/06/22 09:59:09;;;;;;;0.60;0.60;;;;;;;32.09;52.34;100516.28;5068195;28;20673;-69
2023/06/22 10:01:36;;;;;;;1.65;1.02;;;;;;;32.25;53.48;100513.44;5029216;28;20673;-74
2023/06/22 10:04:05;;;;;;;1.17;0.80;;;;;;;32.72;52.81;100505.66;5050512;28;20676;-75
2023/06/22 10:06:31;;;;;;;2.67;1.17;;;;;;;32.78;50.14;100502.56;5061481;28;20194;-74
2023/06/22 10:08:58;;;;;;;0.85;0.80;;;;;;;32.84;48.63;100515.56;5070035;28;20234;-75
2023/06/22 10:11:29;;;;;;;0.80;0.80;;;;;;;32.85;46.20;100513.75;5070601;28;20205;-74
2023/06/22 10:13:56;;;;;;;0.55;0.55;;;;;;;33.05;45.74;100502.44;5070403;28;20214;-76
2023/06/22 10:16:26;;;;;;;1.17;0.90;;;;;;;33.13;45.59;100499.22;5070004;28;20293;-75
2023/06/22 10:18:53;;;;;;;0.60;0.60;;;;;;;33.01;46.56;100500.06;5070245;28;20285;-75
2023/06/22 10:21:21;;;;;;;0.90;0.90;;;;;;;33.05;44.59;100496.19;5070040;28;20195;-74
2023/06/22 10:23:48;;;;;;;0.82;0.82;;;;;;;33.08;44.77;100496.84;5035109;28;20194;-73
2023/06/22 10:26:15;;;;;;;1.13;0.85;;;;;;;33.06;44.76;100471.03;5070310;28;20193;-74
2023/06/22 10:28:41;;;;;;;1.67;1.00;;;;;;;33.22;43.84;100487.81;5034743;28;20229;-73
2023/06/22 10:31:08;;;;;;;0.70;0.70;;;;;;;32.91;46.21;100484.59;5070322;28;20276;-73
2023/06/22 10:33:35;;;;;;;1.55;0.98;;;;;;;33.03;46.83;100487.41;5055423;28;20199;-74
2023/06/22 10:36:02;;;;;;;0.85;0.85;;;;;;;32.76;44.90;100456.13;5074076;28;20198;-74
2023/06/22 10:38:30;;;;;;;0.63;0.63;;;;;;;32.63;45.22;100479.47;5038831;28;20206;-73
2023/06/22 10:40:57;;;;;;;1.00;0.95;;;;;;;32.80;46.67;100476.44;5073632;28;20198;-73
2023/06/22 10:43:23;;;;;;;0.50;0.50;;;;;;;33.03;46.58;100480.19;5073643;28;20255;-74
2023/06/22 10:45:50;;;;;;;0.60;0.60;;;;;;;32.88;44.49;100473.22;5073811;28;20634;-74
2023/06/22 10:48:17;;;;;;;0.70;0.70;;;;;;;33.03;45.83;100471.28;5073543;28;20233;-74
2023/06/22 10:50:44;;;;;;;2.65;1.25;;;;;;;33.13;46.26;100459.78;5071745;28;20212;-74
2023/06/22 10:53:10;;;;;;;0.70;0.70;;;;;;;33.15;44.67;100465.03;5073473;28;20209;-74
2023/06/22 10:55:38;;;;;;;0.70;0.70;;;;;;;32.91;46.23;100473.88;5067760;28;20225;-74
2023/06/22 10:58:05;;;;;;;0.80;0.80;;;;;;;32.92;46.91;100475.59;5072710;28;20205;-74
2023/06/22 11:00:32;;;;;;;0.70;0.70;;;;;;;32.99;46.09;100464.38;5072287;28;20218;-74
2023/06/22 11:02:59;;;;;;;1.65;1.25;;;;;;;32.76;46.98;100450.75;5073426;28;20202;-74
2023/06/22 11:05:26;;;;;;;0.60;0.60;;;;;;;33.02;46.49;100470.41;5036890;28;20733;-73
2023/06/22 11:11:19;;;;;;;1.00;0.82;;;;;;;33.23;45.66;100454.56;5067696;28;20259;-74
2023/06/22 11:13:46;;;;;;;1.65;0.90;;;;;;;33.23;44.40;100473.41;5038014;28;20586;-74
2023/06/22 11:16:13;;;;;;;0.70;0.70;;;;;;;33.52;44.25;100468.56;5073014;28;20198;-74
2023/06/22 11:18:40;;;;;;;0.90;0.70;;;;;;;33.63;44.12;100450.72;5054122;28;20618;-74
2023/06/22 11:21:07;;;;;;;1.20;1.00;;;;;;;33.98;44.36;100463.31;5072886;28;20637;-74
2023/06/22 11:23:34;;;;;;;1.75;0.95;;;;;;;33.45;42.83;100465.47;5072762;28;20202;-74
2023/06/22 11:26:00;;;;;;;3.30;1.60;;;;;;;33.21;43.84;100454.69;5067471;28;20202;-74
2023/06/22 11:28:29;;;;;;;0.60;0.60;;;;;;;33.73;44.65;100462.50;5072009;28;20229;-73